createdAt,value
2022-08-17T00:00:43.879Z,15.90
2022-08-17T00:03:10.988Z,15.80
2022-08-17T00:05:45.519Z,15.90
2022-08-17T00:08:15.293Z,16.00
2022-08-17T00:10:45.371Z,16.00
2022-08-17T00:13:16.681Z,16.00
2022-08-17T00:15:46.742Z,16.00
2022-08-17T00:19:01.222Z,16.00
2022-08-17T00:21:10.542Z,16.00
2022-08-17T00:23:47.749Z,16.00
2022-08-17T00:26:43.606Z,16.00
2022-08-17T00:29:08.651Z,16.00
2022-08-17T00:31:39.030Z,16.00
2022-08-17T00:34:08.758Z,16.00
2022-08-17T00:36:37.613Z,16.00
2022-08-17T00:39:06.140Z,16.10
2022-08-17T00:41:35.765Z,16.10
2022-08-17T00:44:05.842Z,16.00
2022-08-17T00:46:37.106Z,16.10
2022-08-17T00:49:08.265Z,16.00
2022-08-17T00:51:43.286Z,16.00
2022-08-17T00:54:14.951Z,16.10
2022-08-17T00:56:46.870Z,16.00
2022-08-17T00:59:24.728Z,16.00
2022-08-17T01:01:53.832Z,16.00
2022-08-17T01:04:23.773Z,15.90
2022-08-17T01:06:52.862Z,16.00
2022-08-17T01:09:21.700Z,15.90
2022-08-17T01:11:52.310Z,15.90
2022-08-17T01:14:21.503Z,15.80
2022-08-17T01:16:51.622Z,15.80
2022-08-17T01:19:22.782Z,15.80
2022-08-17T01:21:59.243Z,15.70
2022-08-17T01:24:31.211Z,15.70
2022-08-17T01:27:03.155Z,15.60
2022-08-17T01:29:41.969Z,15.60
2022-08-17T01:32:10.504Z,15.50
2022-08-17T01:34:43.796Z,15.50
2022-08-17T01:37:19.854Z,15.50
2022-08-17T01:39:55.076Z,15.40
2022-08-17T01:42:27.558Z,15.40
2022-08-17T01:44:59.621Z,15.40
2022-08-17T01:47:27.842Z,15.40
2022-08-17T01:49:58.101Z,15.30
2022-08-17T01:52:26.408Z,15.30
2022-08-17T01:54:56.500Z,15.20
2022-08-17T01:57:24.672Z,15.20
2022-08-17T01:59:52.906Z,15.20
2022-08-17T02:02:31.412Z,15.20
2022-08-17T02:05:00.284Z,15.10
2022-08-17T02:07:29.125Z,15.10
2022-08-17T02:09:58.865Z,15.10
2022-08-17T02:12:38.758Z,15.10
2022-08-17T02:15:09.252Z,15.10
2022-08-17T02:17:37.462Z,15.00
2022-08-17T02:20:07.673Z,15.00
2022-08-17T02:22:37.299Z,14.90
2022-08-17T02:25:10.593Z,14.90
2022-08-17T02:27:40.165Z,14.90
2022-08-17T02:31:00.815Z,14.90
2022-08-17T02:33:00.140Z,14.80
2022-08-17T02:35:32.558Z,14.80
2022-08-17T02:38:01.368Z,14.70
2022-08-17T02:40:35.763Z,14.70
2022-08-17T02:43:05.289Z,14.80
2022-08-17T02:45:33.531Z,14.80
2022-08-17T02:48:01.765Z,14.80
2022-08-17T02:50:30.014Z,14.80
2022-08-17T02:53:02.432Z,14.80
2022-08-17T02:55:37.615Z,14.80
2022-08-17T02:58:06.034Z,14.80
2022-08-17T03:00:41.034Z,14.70
2022-08-17T03:03:10.809Z,14.80
2022-08-17T03:05:39.808Z,14.70
2022-08-17T03:08:13.053Z,14.70
2022-08-17T03:10:43.969Z,14.80
2022-08-17T03:13:14.348Z,14.80
2022-08-17T03:15:45.756Z,14.90
2022-08-17T03:18:24.932Z,14.90
2022-08-17T03:20:56.471Z,14.80
2022-08-17T03:23:25.382Z,14.80
2022-08-17T03:25:56.228Z,14.80
2022-08-17T03:28:25.732Z,14.80
2022-08-17T03:30:54.427Z,14.80
2022-08-17T03:33:23.183Z,14.80
2022-08-17T03:35:51.594Z,14.90
2022-08-17T03:38:20.401Z,14.90
2022-08-17T03:40:56.487Z,14.80
2022-08-17T03:43:30.080Z,14.80
2022-08-17T03:46:33.981Z,14.80
2022-08-17T03:49:20.965Z,14.80
2022-08-17T03:52:07.087Z,14.80
2022-08-17T03:54:53.123Z,14.80
2022-08-17T03:57:21.615Z,14.80
2022-08-17T03:59:51.413Z,14.90
2022-08-17T04:02:24.098Z,14.90
2022-08-17T04:04:53.809Z,15.00
2022-08-17T04:07:23.545Z,15.10
2022-08-17T04:09:52.210Z,15.10
2022-08-17T04:12:22.430Z,15.10
2022-08-17T04:14:54.603Z,15.10
2022-08-17T04:17:25.473Z,15.10
2022-08-17T04:19:54.100Z,15.10
2022-08-17T04:22:30.152Z,15.20
2022-08-17T04:25:04.823Z,15.30
2022-08-17T04:27:33.246Z,15.20
2022-08-17T04:30:07.039Z,15.20
2022-08-17T04:33:03.383Z,15.20
2022-08-17T04:35:36.691Z,15.20
2022-08-17T04:38:05.051Z,15.30
2022-08-17T04:40:51.181Z,15.30
2022-08-17T04:43:21.556Z,15.30
2022-08-17T04:45:55.953Z,15.30
2022-08-17T04:48:29.792Z,15.30
2022-08-17T04:51:09.847Z,15.40
2022-08-17T04:53:39.648Z,15.40
2022-08-17T04:56:16.155Z,15.50
2022-08-17T04:58:46.635Z,15.50
2022-08-17T05:01:17.020Z,15.50
2022-08-17T05:03:52.064Z,15.50
2022-08-17T05:06:20.987Z,15.50
2022-08-17T05:08:49.598Z,15.60
2022-08-17T05:11:18.101Z,15.60
2022-08-17T05:13:46.488Z,15.70
2022-08-17T05:16:16.033Z,15.80
2022-08-17T05:18:44.288Z,15.80
2022-08-17T05:21:12.515Z,16.20
2022-08-17T05:23:43.295Z,16.00
2022-08-17T05:26:26.516Z,16.00
2022-08-17T05:29:02.505Z,16.10
2022-08-17T05:31:32.681Z,16.20
2022-08-17T05:34:00.966Z,16.40
2022-08-17T05:36:43.622Z,16.60
2022-08-17T05:39:16.097Z,16.80
2022-08-17T05:41:48.688Z,17.00
2022-08-17T05:44:17.943Z,17.30
2022-08-17T05:46:51.268Z,17.30
2022-08-17T05:49:23.050Z,17.40
2022-08-17T05:52:14.472Z,17.70
2022-08-17T05:55:10.994Z,17.70
2022-08-17T05:57:54.239Z,17.90
2022-08-17T06:00:30.647Z,18.00
2022-08-17T06:03:19.644Z,18.20
2022-08-17T06:06:14.598Z,18.30
2022-08-17T06:08:51.738Z,18.60
2022-08-17T06:11:28.856Z,18.90
2022-08-17T06:14:09.231Z,19.10
2022-08-17T06:16:41.093Z,19.30
2022-08-17T06:19:16.917Z,19.50
2022-08-17T06:21:48.341Z,19.60
2022-08-17T06:24:27.405Z,19.80
2022-08-17T06:26:58.376Z,19.90
2022-08-17T06:29:38.119Z,20.10
2022-08-17T06:32:08.817Z,20.10
2022-08-17T06:34:39.394Z,20.20
2022-08-17T06:37:20.227Z,20.30
2022-08-17T06:39:57.338Z,20.40
2022-08-17T06:43:05.353Z,20.20
2022-08-17T06:45:32.771Z,20.40
2022-08-17T06:48:05.751Z,20.50
2022-08-17T06:50:39.930Z,20.50
2022-08-17T06:53:21.025Z,20.70
2022-08-17T06:55:57.207Z,20.80
2022-08-17T06:58:29.755Z,21.10
2022-08-17T07:01:02.024Z,21.10
2022-08-17T07:03:37.796Z,21.20
2022-08-17T07:06:13.726Z,21.30
2022-08-17T07:08:52.060Z,21.30
2022-08-17T07:11:27.321Z,21.40
2022-08-17T07:14:05.837Z,21.50
2022-08-17T07:16:41.132Z,21.70
2022-08-17T07:19:11.204Z,21.80
2022-08-17T07:21:49.692Z,22.00
2022-08-17T07:24:41.486Z,22.40
2022-08-17T07:27:15.024Z,22.60
2022-08-17T07:29:50.429Z,22.80
2022-08-17T07:32:24.036Z,23.00
2022-08-17T07:35:15.706Z,23.20
2022-08-17T07:37:50.989Z,23.30
2022-08-17T07:40:33.433Z,23.30
2022-08-17T07:43:19.910Z,23.50
2022-08-17T07:46:19.184Z,23.80
2022-08-17T07:48:51.050Z,24.00
2022-08-17T07:51:26.229Z,24.20
2022-08-17T07:54:13.183Z,24.30
2022-08-17T07:56:46.332Z,24.50
2022-08-17T07:59:18.270Z,24.80
2022-08-17T08:02:06.086Z,25.00
2022-08-17T08:04:59.091Z,25.10
2022-08-17T08:07:29.520Z,25.20
2022-08-17T08:10:09.795Z,25.30
2022-08-17T08:12:39.749Z,25.30
2022-08-17T08:15:17.761Z,25.30
2022-08-17T08:17:52.894Z,25.40
2022-08-17T08:20:47.762Z,25.50
2022-08-17T08:23:28.592Z,25.50
2022-08-17T08:26:13.164Z,25.50
2022-08-17T08:28:48.038Z,25.60
2022-08-17T08:31:29.395Z,25.60
2022-08-17T08:34:44.554Z,25.80
2022-08-17T08:37:17.617Z,25.70
2022-08-17T08:39:57.685Z,25.80
2022-08-17T08:42:36.597Z,25.80
2022-08-17T08:45:16.080Z,25.70
2022-08-17T08:48:05.321Z,26.00
2022-08-17T08:50:45.985Z,26.20
2022-08-17T08:53:24.668Z,26.20
2022-08-17T08:55:56.960Z,26.20
2022-08-17T08:58:41.945Z,26.10
2022-08-17T09:01:26.387Z,26.20
2022-08-17T09:04:24.179Z,26.30
2022-08-17T09:07:06.451Z,26.30
2022-08-17T09:09:49.552Z,26.50
2022-08-17T09:12:26.425Z,26.60
2022-08-17T09:15:03.093Z,26.70
2022-08-17T09:17:37.421Z,26.60
2022-08-17T09:20:26.412Z,26.60
2022-08-17T09:23:04.077Z,26.30
2022-08-17T09:25:36.093Z,26.20
2022-08-17T09:28:08.232Z,26.10
2022-08-17T09:30:44.402Z,26.00
2022-08-17T09:33:16.979Z,25.80
2022-08-17T09:35:49.209Z,25.60
2022-08-17T09:38:27.076Z,25.30
2022-08-17T09:41:02.485Z,25.20
2022-08-17T09:43:39.935Z,25.10
2022-08-17T09:46:15.875Z,25.10
2022-08-17T09:48:50.727Z,25.00
2022-08-17T09:51:25.634Z,25.00
2022-08-17T09:53:54.277Z,25.10
2022-08-17T09:56:42.343Z,25.00
2022-08-17T09:59:27.431Z,25.00
2022-08-17T10:02:29.831Z,25.30
2022-08-17T10:05:04.796Z,25.50
2022-08-17T10:07:37.932Z,25.70
2022-08-17T10:10:14.568Z,25.90
2022-08-17T10:12:53.218Z,26.00
2022-08-17T10:15:36.645Z,26.20
2022-08-17T10:18:24.714Z,26.40
2022-08-17T10:21:24.519Z,26.40
2022-08-17T10:24:17.556Z,26.50
2022-08-17T10:26:56.675Z,26.50
2022-08-17T10:29:29.777Z,26.60
2022-08-17T10:32:11.607Z,26.70
2022-08-17T10:35:07.452Z,26.80
2022-08-17T10:38:05.128Z,27.10
2022-08-17T10:40:37.981Z,27.30
2022-08-17T10:43:24.730Z,27.20
2022-08-17T10:46:30.209Z,27.20
2022-08-17T10:49:23.200Z,27.20
2022-08-17T10:51:54.471Z,27.30
2022-08-17T10:54:58.068Z,27.00
2022-08-17T10:57:44.742Z,27.00
2022-08-17T11:00:16.532Z,26.90
2022-08-17T11:02:50.889Z,26.70
2022-08-17T11:05:43.832Z,26.60
2022-08-17T11:08:37.624Z,26.60
2022-08-17T11:11:35.732Z,26.50
2022-08-17T11:14:23.983Z,26.50
2022-08-17T11:17:08.149Z,26.50
2022-08-17T11:20:05.862Z,26.50
2022-08-17T11:23:00.036Z,26.50
2022-08-17T11:25:40.689Z,26.50
2022-08-17T11:28:16.895Z,26.50
2022-08-17T11:30:51.994Z,26.50
2022-08-17T11:33:57.500Z,26.50
2022-08-17T11:36:53.821Z,26.50
2022-08-17T11:39:54.458Z,26.40
2022-08-17T11:42:54.503Z,26.30
2022-08-17T11:45:47.891Z,26.30
2022-08-17T11:48:43.548Z,26.40
2022-08-17T11:51:32.124Z,26.30
2022-08-17T11:54:31.256Z,26.40
2022-08-17T11:56:54.057Z,26.40
2022-08-17T12:00:06.197Z,26.70
2022-08-17T12:02:48.107Z,26.70
2022-08-17T12:05:34.080Z,26.80
2022-08-17T12:08:11.785Z,27.00
2022-08-17T12:10:50.416Z,27.20
2022-08-17T12:13:19.942Z,27.40
2022-08-17T12:15:53.170Z,27.50
2022-08-17T12:18:23.284Z,27.90
2022-08-17T12:21:12.043Z,28.20
2022-08-17T12:23:52.784Z,28.40
2022-08-17T12:26:26.097Z,28.70
2022-08-17T12:28:59.696Z,29.10
2022-08-17T12:31:34.624Z,29.30
2022-08-17T12:34:03.985Z,29.60
2022-08-17T12:36:33.632Z,29.80
2022-08-17T12:39:14.317Z,29.80
2022-08-17T12:41:50.241Z,29.90
2022-08-17T12:44:21.565Z,30.50
2022-08-17T12:46:55.190Z,30.60
2022-08-17T12:49:30.501Z,30.60
2022-08-17T12:52:07.249Z,30.50
2022-08-17T12:54:42.093Z,30.70
2022-08-17T12:57:14.038Z,31.00
2022-08-17T12:59:45.304Z,31.30
2022-08-17T13:02:39.131Z,31.20
2022-08-17T13:05:09.503Z,31.10
2022-08-17T13:07:43.419Z,31.00
2022-08-17T13:10:22.357Z,31.20
2022-08-17T13:12:51.391Z,31.00
2022-08-17T13:15:29.595Z,30.80
2022-08-17T13:18:04.948Z,30.70
2022-08-17T13:20:33.806Z,30.70
2022-08-17T13:23:09.965Z,31.00
2022-08-17T13:25:40.342Z,31.10
2022-08-17T13:28:18.709Z,31.00
2022-08-17T13:31:24.066Z,31.20
2022-08-17T13:33:53.580Z,31.20
2022-08-17T13:36:33.575Z,31.40
2022-08-17T13:39:09.016Z,31.50
2022-08-17T13:41:38.986Z,31.60
2022-08-17T13:44:30.969Z,31.80
2022-08-17T13:47:00.567Z,31.70
2022-08-17T13:49:41.542Z,31.50
2022-08-17T13:52:38.060Z,31.40
2022-08-17T13:55:09.905Z,31.50
2022-08-17T13:57:38.219Z,31.50
2022-08-17T14:00:17.091Z,31.30
2022-08-17T14:02:45.186Z,31.10
2022-08-17T14:05:14.658Z,30.70
2022-08-17T14:07:42.777Z,30.80
2022-08-17T14:10:14.497Z,30.80
2022-08-17T14:12:44.845Z,30.70
2022-08-17T14:15:14.946Z,30.40
2022-08-17T14:17:43.302Z,30.40
2022-08-17T14:20:14.731Z,30.50
2022-08-17T14:22:48.189Z,30.40
2022-08-17T14:25:20.641Z,30.50
2022-08-17T14:27:52.864Z,30.50
2022-08-17T14:30:25.221Z,30.50
2022-08-17T14:32:53.663Z,30.70
2022-08-17T14:35:24.463Z,30.60
2022-08-17T14:37:53.339Z,30.50
2022-08-17T14:40:24.498Z,30.40
2022-08-17T14:42:54.284Z,30.20
2022-08-17T14:45:32.304Z,30.30
2022-08-17T14:48:03.893Z,30.00
2022-08-17T14:50:35.841Z,30.00
2022-08-17T14:53:05.090Z,29.80
2022-08-17T14:55:33.508Z,29.90
2022-08-17T14:58:01.564Z,30.00
2022-08-17T15:00:29.643Z,29.90
2022-08-17T15:03:00.882Z,30.20
2022-08-17T15:05:31.293Z,30.60
2022-08-17T15:08:03.088Z,30.70
2022-08-17T15:10:32.257Z,30.80
2022-08-17T15:13:01.010Z,30.90
2022-08-17T15:15:29.722Z,30.90
2022-08-17T15:17:59.104Z,30.80
2022-08-17T15:20:29.539Z,30.70
2022-08-17T15:22:59.036Z,30.40
2022-08-17T15:25:31.626Z,30.10
2022-08-17T15:28:00.457Z,30.00
2022-08-17T15:30:30.092Z,30.00
2022-08-17T15:32:58.937Z,29.80
2022-08-17T15:35:30.395Z,29.80
2022-08-17T15:38:03.534Z,29.80
2022-08-17T15:40:39.676Z,29.70
2022-08-17T15:43:08.351Z,29.80
2022-08-17T15:45:36.408Z,29.90
2022-08-17T15:48:04.850Z,30.00
2022-08-17T15:50:32.961Z,30.00
2022-08-17T15:53:03.523Z,30.00
2022-08-17T15:55:33.129Z,29.90
2022-08-17T15:58:03.037Z,29.80
2022-08-17T16:00:31.503Z,29.90
2022-08-17T16:03:44.913Z,29.70
2022-08-17T16:05:56.220Z,29.60
2022-08-17T16:08:25.310Z,29.40
2022-08-17T16:10:53.407Z,29.30
2022-08-17T16:13:24.014Z,29.30
2022-08-17T16:15:56.954Z,29.30
2022-08-17T16:18:30.689Z,29.40
2022-08-17T16:21:19.050Z,29.30
2022-08-17T16:23:47.413Z,29.40
2022-08-17T16:26:15.987Z,29.30
2022-08-17T16:28:45.629Z,29.30
2022-08-17T16:31:14.287Z,29.30
2022-08-17T16:33:42.864Z,29.40
2022-08-17T16:36:31.094Z,29.40
2022-08-17T16:38:59.324Z,29.40
2022-08-17T16:41:45.350Z,29.40
2022-08-17T16:44:16.991Z,29.30
2022-08-17T16:46:46.230Z,29.20
2022-08-17T16:49:36.188Z,29.10
2022-08-17T16:52:03.983Z,28.90
2022-08-17T16:54:32.659Z,28.70
2022-08-17T16:57:00.761Z,28.50
2022-08-17T16:59:41.840Z,28.40
2022-08-17T17:02:14.376Z,28.40
2022-08-17T17:04:47.425Z,28.30
2022-08-17T17:07:38.541Z,28.20
2022-08-17T17:10:11.049Z,28.10
2022-08-17T17:13:01.273Z,28.00
2022-08-17T17:15:54.240Z,27.90
2022-08-17T17:18:36.484Z,27.70
2022-08-17T17:21:06.256Z,27.60
2022-08-17T17:23:48.136Z,27.60
2022-08-17T17:26:46.312Z,27.50
2022-08-17T17:29:25.610Z,27.40
2022-08-17T17:32:09.373Z,27.30
2022-08-17T17:34:39.725Z,27.20
2022-08-17T17:37:14.405Z,27.00
2022-08-17T17:39:48.892Z,26.90
2022-08-17T17:42:19.973Z,26.70
2022-08-17T17:44:55.095Z,26.60
2022-08-17T17:47:24.560Z,26.50
2022-08-17T17:49:52.599Z,26.40
2022-08-17T17:52:28.300Z,26.40
2022-08-17T17:55:07.182Z,26.30
2022-08-17T17:57:45.402Z,26.30
2022-08-17T18:00:17.896Z,26.20
2022-08-17T18:03:00.849Z,26.10
2022-08-17T18:05:40.402Z,26.00
2022-08-17T18:08:31.973Z,25.90
2022-08-17T18:11:12.869Z,25.80
2022-08-17T18:13:56.593Z,25.70
2022-08-17T18:16:24.661Z,25.60
2022-08-17T18:18:54.189Z,25.50
2022-08-17T18:21:24.775Z,25.40
2022-08-17T18:23:58.157Z,25.40
2022-08-17T18:26:45.674Z,25.30
2022-08-17T18:29:24.125Z,25.20
2022-08-17T18:32:22.535Z,25.10
2022-08-17T18:34:54.746Z,25.00
2022-08-17T18:37:39.861Z,24.80
2022-08-17T18:40:35.425Z,24.50
2022-08-17T18:43:09.206Z,24.40
2022-08-17T18:45:41.320Z,24.20
2022-08-17T18:48:30.413Z,24.20
2022-08-17T18:51:39.889Z,24.10
2022-08-17T18:54:18.071Z,24.00
2022-08-17T18:56:51.819Z,23.80
2022-08-17T18:59:29.255Z,23.70
2022-08-17T19:02:32.508Z,23.60
2022-08-17T19:05:13.383Z,23.50
2022-08-17T19:07:45.660Z,23.30
2022-08-17T19:10:28.584Z,23.20
2022-08-17T19:13:12.809Z,23.10
2022-08-17T19:16:14.360Z,22.90
2022-08-17T19:18:40.569Z,22.80
2022-08-17T19:21:15.122Z,22.70
2022-08-17T19:23:53.831Z,22.50
2022-08-17T19:26:51.124Z,22.40
2022-08-17T19:29:16.519Z,22.30
2022-08-17T19:31:47.714Z,22.20
2022-08-17T19:34:33.475Z,22.10
2022-08-17T19:37:08.907Z,22.00
2022-08-17T19:39:49.200Z,21.80
2022-08-17T19:42:33.895Z,21.60
2022-08-17T19:45:08.506Z,21.50
2022-08-17T19:47:54.909Z,21.50
2022-08-17T19:50:38.321Z,21.40
2022-08-17T19:53:14.510Z,21.30
2022-08-17T19:55:52.127Z,21.30
2022-08-17T19:58:33.021Z,21.20
2022-08-17T20:01:03.064Z,21.10
2022-08-17T20:03:39.111Z,21.10
2022-08-17T20:06:13.822Z,21.10
2022-08-17T20:08:51.117Z,21.10
2022-08-17T20:11:24.743Z,21.00
2022-08-17T20:14:03.614Z,20.90
2022-08-17T20:16:33.695Z,20.90
2022-08-17T20:19:05.973Z,20.90
2022-08-17T20:21:40.169Z,20.80
2022-08-17T20:24:21.055Z,20.80
2022-08-17T20:26:57.887Z,20.70
2022-08-17T20:29:37.832Z,20.70
2022-08-17T20:32:26.952Z,20.70
2022-08-17T20:35:20.587Z,20.60
2022-08-17T20:37:56.304Z,20.50
2022-08-17T20:40:33.935Z,20.50
2022-08-17T20:43:45.774Z,20.50
2022-08-17T20:46:34.792Z,20.40
2022-08-17T20:49:18.911Z,20.30
2022-08-17T20:52:01.441Z,20.30
2022-08-17T20:54:49.709Z,20.20
2022-08-17T20:57:47.687Z,20.10
2022-08-17T21:00:45.613Z,20.00
2022-08-17T21:03:51.512Z,19.90
2022-08-17T21:06:23.355Z,19.80
2022-08-17T21:08:55.101Z,19.70
2022-08-17T21:12:04.661Z,19.60
2022-08-17T21:15:00.966Z,19.60
2022-08-17T21:17:42.969Z,19.40
2022-08-17T21:20:24.332Z,19.30
2022-08-17T21:23:04.180Z,19.20
2022-08-17T21:25:51.113Z,19.20
2022-08-17T21:28:30.029Z,19.10
2022-08-17T21:31:09.051Z,19.10
2022-08-17T21:33:40.283Z,19.00
2022-08-17T21:36:26.423Z,19.00
2022-08-17T21:39:08.669Z,18.90
2022-08-17T21:41:52.769Z,18.90
2022-08-17T21:44:30.476Z,18.80
2022-08-17T21:47:14.554Z,18.70
2022-08-17T21:49:44.285Z,18.70
2022-08-17T21:52:15.477Z,18.70
2022-08-17T21:54:50.968Z,18.70
2022-08-17T21:57:22.313Z,18.60
2022-08-17T21:59:54.807Z,18.60
2022-08-17T22:02:26.314Z,18.60
2022-08-17T22:05:01.416Z,18.60
2022-08-17T22:07:38.514Z,18.60
2022-08-17T22:10:09.227Z,18.50
2022-08-17T22:12:37.298Z,18.50
2022-08-17T22:15:09.672Z,18.40
2022-08-17T22:17:41.239Z,18.50
2022-08-17T22:20:14.234Z,18.40
2022-08-17T22:23:32.749Z,18.40
2022-08-17T22:26:04.013Z,18.40
2022-08-17T22:28:42.235Z,18.30
2022-08-17T22:31:14.513Z,18.30
2022-08-17T22:33:46.730Z,18.20
2022-08-17T22:36:29.242Z,18.20
2022-08-17T22:38:59.175Z,18.20
2022-08-17T22:41:41.177Z,18.20
2022-08-17T22:44:16.243Z,18.20
2022-08-17T22:46:58.819Z,18.20
2022-08-17T22:49:32.165Z,18.20
2022-08-17T22:52:09.118Z,18.20
2022-08-17T22:54:54.456Z,18.10
2022-08-17T22:57:41.795Z,18.00
2022-08-17T23:00:28.911Z,18.00
2022-08-17T23:03:17.553Z,18.00
2022-08-17T23:05:48.566Z,17.90
2022-08-17T23:08:21.258Z,17.90
2022-08-17T23:10:50.172Z,17.90
2022-08-17T23:13:18.282Z,17.80
2022-08-17T23:15:48.104Z,17.90
2022-08-17T23:18:17.748Z,17.80
2022-08-17T23:20:46.445Z,17.80
2022-08-17T23:23:15.787Z,17.80
2022-08-17T23:25:46.204Z,17.70
2022-08-17T23:28:16.919Z,17.60
2022-08-17T23:30:46.600Z,17.50
2022-08-17T23:33:19.933Z,17.50
2022-08-17T23:35:48.523Z,17.50
2022-08-17T23:38:16.581Z,17.40
2022-08-17T23:40:45.996Z,17.30
2022-08-17T23:43:23.905Z,17.30
2022-08-17T23:45:53.337Z,17.30
2022-08-17T23:48:35.937Z,17.20
2022-08-17T23:51:09.638Z,17.20
2022-08-17T23:53:40.240Z,17.20
2022-08-17T23:56:11.211Z,17.10
2022-08-17T23:58:41.949Z,17.20
